Etusivu
METAR-TAF:

METAR-TAF

Lentoasemat :

Charlotte, Michigan, Yhdysvallat

Leveyspiiri: 42-34-28N, Pituuspiiri: 084-48-41W, korkeus merenpinnasta: 271 m

Tämänhetkinen sää

Tämä raportti tehtiin 20 minuuttia sitten, kello 05.55 UTC
tyyntä
Lämpötila 13°C
Kosteus 100%
Ilmanpaine 1021 hPa
Näkyvyys: 16.1 km
selkeää

METAR: KFPK 150555Z AUTO 00000KT 10SM CLR 13/13 A3016 RMK AO2 T01340125 10190 20132 402330132

Aika: 02:15 (06:15 UTC)


TAF: puuttuu

Säähavainnot ja -ennusteet yli 4000 lentoasemalta (METAR- ja TAF-raportit).

Käytössä olevat sääasemat on merkitty karttaan keltaisilla ja punaisilla pisteillä.

Aseta hiiri pisteen päälle nähdäksesi sääaseman nimen.

Klikkaa sitten nähdäksesi säähavainnot ja -ennusteet.

Kartan vaihtaminen: klikkaa mustalla rastilla varustettuja vihreitä pisteitä, niin voit zoomata sisään; viivalla varustettua vihreää pistettä, niin voit zoomata ulos tai vihreitä nuolia, niin pääset viereisille kartoille.


METAR-TAF: